createdAt,value
2022-12-08T00:01:09.540Z,-0.40
2022-12-08T00:02:13.955Z,-0.44
2022-12-08T00:03:16.804Z,-0.44
2022-12-08T00:04:19.150Z,-0.42
2022-12-08T00:05:40.084Z,-0.49
2022-12-08T00:07:02.500Z,-0.54
2022-12-08T00:08:23.861Z,-0.60
2022-12-08T00:09:40.127Z,-0.64
2022-12-08T00:10:49.934Z,-0.71
2022-12-08T00:12:05.170Z,-0.75
2022-12-08T00:13:07.372Z,-0.76
2022-12-08T00:14:12.173Z,-0.75
2022-12-08T00:15:14.532Z,-0.82
2022-12-08T00:16:16.816Z,-0.87
2022-12-08T00:17:19.556Z,-0.82
2022-12-08T00:18:22.067Z,-0.85
2022-12-08T00:19:25.328Z,-0.97
2022-12-08T00:20:27.644Z,-1.00
2022-12-08T00:21:31.271Z,-0.96
2022-12-08T00:22:33.589Z,-0.97
2022-12-08T00:23:36.004Z,-1.01
2022-12-08T00:24:40.018Z,-1.03
2022-12-08T00:25:42.366Z,-1.03
2022-12-08T00:26:44.932Z,-1.03
2022-12-08T00:27:47.699Z,-1.04
2022-12-08T00:28:50.821Z,-1.05
2022-12-08T00:29:53.527Z,-1.07
2022-12-08T00:30:55.879Z,-1.05
2022-12-08T00:31:58.350Z,-1.19
2022-12-08T00:33:00.666Z,-1.33
2022-12-08T00:34:03.971Z,-1.38
2022-12-08T00:35:06.812Z,-1.35
2022-12-08T00:36:11.971Z,-1.29
2022-12-08T00:37:14.547Z,-1.29
2022-12-08T00:38:17.037Z,-1.29
2022-12-08T00:39:19.788Z,-1.27
2022-12-08T00:40:22.171Z,-1.29
2022-12-08T00:41:45.349Z,-1.33
2022-12-08T00:42:47.993Z,-1.35
2022-12-08T00:43:50.156Z,-1.34
2022-12-08T00:44:52.540Z,-1.36
2022-12-08T00:45:54.908Z,-1.49
2022-12-08T00:46:57.377Z,-1.48
2022-12-08T00:47:59.868Z,-1.44
2022-12-08T00:49:03.019Z,-1.42
2022-12-08T00:50:07.362Z,-1.48
2022-12-08T00:51:09.720Z,-1.48
2022-12-08T00:52:13.144Z,-1.46
2022-12-08T00:53:15.613Z,-1.53
2022-12-08T00:54:18.479Z,-1.66
2022-12-08T00:55:20.907Z,-1.68
2022-12-08T00:56:23.476Z,-1.64
2022-12-08T00:57:25.896Z,-1.68
2022-12-08T00:58:28.190Z,-1.65
2022-12-08T00:59:30.666Z,-1.60
2022-12-08T01:00:33.011Z,-1.62
2022-12-08T01:01:36.135Z,-1.69
2022-12-08T01:02:38.608Z,-1.68
2022-12-08T01:03:42.288Z,-1.66
2022-12-08T01:04:44.934Z,-1.79
2022-12-08T01:05:47.239Z,-1.84
2022-12-08T01:06:49.802Z,-1.75
2022-12-08T01:07:52.255Z,-1.72
2022-12-08T01:08:55.112Z,-1.82
2022-12-08T01:09:58.293Z,-1.88
2022-12-08T01:11:05.618Z,-1.83
2022-12-08T01:12:08.440Z,-1.86
2022-12-08T01:13:13.657Z,-1.80
2022-12-08T01:14:16.502Z,-1.80
2022-12-08T01:15:18.839Z,-1.82
2022-12-08T01:16:23.396Z,-1.87
2022-12-08T01:17:28.046Z,-1.84
2022-12-08T01:18:30.751Z,-1.87
2022-12-08T01:19:33.199Z,-1.91
2022-12-08T01:20:35.615Z,-1.98
2022-12-08T01:21:38.179Z,-2.05
2022-12-08T01:22:40.599Z,-2.01
2022-12-08T01:23:43.077Z,-2.08
2022-12-08T01:24:45.567Z,-2.00
2022-12-08T01:25:48.032Z,-1.94
2022-12-08T01:26:51.488Z,-2.08
2022-12-08T01:27:53.986Z,-2.09
2022-12-08T01:28:56.463Z,-2.12
2022-12-08T01:29:59.631Z,-2.06
2022-12-08T01:31:02.785Z,-2.02
2022-12-08T01:32:05.463Z,-1.99
2022-12-08T01:33:07.831Z,-1.96
2022-12-08T01:34:11.555Z,-1.90
2022-12-08T01:35:14.410Z,-1.91
2022-12-08T01:36:23.151Z,-1.89
2022-12-08T01:37:25.966Z,-1.94
2022-12-08T01:38:28.187Z,-1.89
2022-12-08T01:39:30.862Z,-1.93
2022-12-08T01:40:33.264Z,-1.90
2022-12-08T01:41:37.876Z,-1.96
2022-12-08T01:42:40.183Z,-1.99
2022-12-08T01:43:57.490Z,-1.96
2022-12-08T01:45:03.163Z,-1.88
2022-12-08T01:46:05.946Z,-1.84
2022-12-08T01:47:08.963Z,-1.74
2022-12-08T01:48:18.726Z,-1.64
2022-12-08T01:49:31.087Z,-1.64
2022-12-08T01:50:34.333Z,-1.53
2022-12-08T01:52:01.054Z,-1.50
2022-12-08T01:53:14.792Z,-1.52
2022-12-08T01:54:17.784Z,-1.63
2022-12-08T01:55:23.158Z,-1.61
2022-12-08T01:56:36.519Z,-1.59
2022-12-08T01:57:48.927Z,-1.55
2022-12-08T01:58:54.366Z,-1.59
2022-12-08T02:00:04.456Z,-1.56
2022-12-08T02:01:10.928Z,-1.51
2022-12-08T02:02:13.402Z,-1.62
2022-12-08T02:03:28.874Z,-1.61
2022-12-08T02:04:31.185Z,-1.53
2022-12-08T02:05:41.037Z,-1.52
2022-12-08T02:06:44.989Z,-1.50
2022-12-08T02:07:48.821Z,-1.54
2022-12-08T02:08:52.375Z,-1.56
2022-12-08T02:09:55.523Z,-1.50
2022-12-08T02:10:57.944Z,-1.48
2022-12-08T02:12:00.946Z,-1.43
2022-12-08T02:13:04.892Z,-1.40
2022-12-08T02:14:11.618Z,-1.42
2022-12-08T02:15:15.173Z,-1.37
2022-12-08T02:16:39.044Z,-1.38
2022-12-08T02:18:16.238Z,-1.37
2022-12-08T02:19:36.569Z,-1.31
2022-12-08T02:20:39.030Z,-1.31
2022-12-08T02:21:45.231Z,-1.30
2022-12-08T02:22:59.665Z,-1.31
2022-12-08T02:24:09.905Z,-1.31
2022-12-08T02:25:38.406Z,-1.29
2022-12-08T02:27:20.306Z,-1.34
2022-12-08T02:29:00.488Z,-1.41
2022-12-08T02:30:15.985Z,-1.45
2022-12-08T02:31:45.665Z,-1.44
2022-12-08T02:32:57.211Z,-1.45
2022-12-08T02:34:22.939Z,-1.37
2022-12-08T02:35:56.437Z,-1.40
2022-12-08T02:37:09.746Z,-1.44
2022-12-08T02:38:51.042Z,-1.54
2022-12-08T02:40:33.894Z,-1.52
2022-12-08T02:42:04.560Z,-1.53
2022-12-08T02:43:16.785Z,-1.52
2022-12-08T02:44:37.606Z,-1.60
2022-12-08T02:46:05.991Z,-1.43
2022-12-08T02:47:13.883Z,-1.49
2022-12-08T02:48:17.365Z,-1.50
2022-12-08T02:49:19.971Z,-1.53
2022-12-08T02:50:25.372Z,-1.55
2022-12-08T02:51:27.719Z,-1.45
2022-12-08T02:52:30.068Z,-1.46
2022-12-08T02:53:37.422Z,-1.46
2022-12-08T02:54:43.149Z,-1.46
2022-12-08T02:56:02.196Z,-1.45
2022-12-08T02:57:34.467Z,-1.48
2022-12-08T02:59:15.671Z,-1.56
2022-12-08T03:00:25.046Z,-1.56
2022-12-08T03:01:39.590Z,-1.66
2022-12-08T03:02:54.219Z,-1.58
2022-12-08T03:04:10.485Z,-1.62
2022-12-08T03:05:18.753Z,-1.58
2022-12-08T03:06:59.740Z,-1.64
2022-12-08T03:08:02.463Z,-1.67
2022-12-08T03:09:29.247Z,-1.62
2022-12-08T03:10:37.735Z,-1.65
2022-12-08T03:11:50.085Z,-1.57
2022-12-08T03:13:15.957Z,-1.50
2022-12-08T03:14:19.658Z,-1.65
2022-12-08T03:15:22.784Z,-1.75
2022-12-08T03:16:28.642Z,-1.65
2022-12-08T03:17:32.366Z,-1.69
2022-12-08T03:18:38.319Z,-1.75
2022-12-08T03:19:44.027Z,-1.75
2022-12-08T03:20:48.249Z,-1.75
2022-12-08T03:21:53.826Z,-1.72
2022-12-08T03:23:00.293Z,-1.73
2022-12-08T03:24:06.602Z,-1.72
2022-12-08T03:25:13.615Z,-1.70
2022-12-08T03:26:23.028Z,-1.65
2022-12-08T03:27:28.267Z,-1.66
2022-12-08T03:28:30.814Z,-1.69
2022-12-08T03:29:34.114Z,-1.76
2022-12-08T03:30:40.021Z,-1.79
2022-12-08T03:31:50.345Z,-1.76
2022-12-08T03:32:59.556Z,-1.77
2022-12-08T03:34:04.869Z,-1.78
2022-12-08T03:35:12.759Z,-1.87
2022-12-08T03:36:15.424Z,-1.93
2022-12-08T03:37:21.413Z,-1.79
2022-12-08T03:38:24.930Z,-1.78
2022-12-08T03:39:27.122Z,-1.80
2022-12-08T03:40:29.520Z,-1.81
2022-12-08T03:41:31.909Z,-1.80
2022-12-08T03:42:34.199Z,-1.90
2022-12-08T03:43:36.877Z,-2.04
2022-12-08T03:44:39.297Z,-2.12
2022-12-08T03:45:41.582Z,-2.17
2022-12-08T03:46:44.026Z,-2.23
2022-12-08T03:47:46.601Z,-2.14
2022-12-08T03:48:49.151Z,-2.06
2022-12-08T03:49:51.683Z,-2.00
2022-12-08T03:50:54.129Z,-1.95
2022-12-08T03:51:56.759Z,-1.96
2022-12-08T03:52:59.085Z,-2.06
2022-12-08T03:54:01.431Z,-2.04
2022-12-08T03:55:04.012Z,-2.04
2022-12-08T03:56:16.351Z,-2.01
2022-12-08T03:57:18.763Z,-2.07
2022-12-08T03:58:21.063Z,-2.16
2022-12-08T03:59:23.514Z,-2.16
2022-12-08T04:00:26.190Z,-2.15
2022-12-08T04:01:28.690Z,-2.07
2022-12-08T04:02:31.240Z,-2.21
2022-12-08T04:03:33.672Z,-2.14
2022-12-08T04:04:35.969Z,-2.12
2022-12-08T04:05:38.580Z,-2.08
2022-12-08T04:06:40.978Z,-2.17
2022-12-08T04:07:43.777Z,-2.16
2022-12-08T04:08:46.360Z,-2.15
2022-12-08T04:09:48.808Z,-2.20
2022-12-08T04:10:51.248Z,-2.29
2022-12-08T04:11:54.189Z,-2.31
2022-12-08T04:12:57.522Z,-2.37
2022-12-08T04:13:59.972Z,-2.29
2022-12-08T04:15:02.276Z,-2.27
2022-12-08T04:16:06.465Z,-2.30
2022-12-08T04:17:13.575Z,-2.24
2022-12-08T04:18:16.220Z,-2.27
2022-12-08T04:19:18.550Z,-2.28
2022-12-08T04:20:21.041Z,-2.25
2022-12-08T04:21:23.596Z,-2.26
2022-12-08T04:22:26.023Z,-2.44
2022-12-08T04:23:28.545Z,-2.29
2022-12-08T04:24:32.185Z,-2.27
2022-12-08T04:25:35.391Z,-2.30
2022-12-08T04:26:37.721Z,-2.28
2022-12-08T04:27:40.101Z,-2.34
2022-12-08T04:28:42.687Z,-2.41
2022-12-08T04:29:45.208Z,-2.39
2022-12-08T04:30:49.032Z,-2.34
2022-12-08T04:31:51.400Z,-2.33
2022-12-08T04:32:54.173Z,-2.29
2022-12-08T04:33:56.513Z,-2.33
2022-12-08T04:34:59.035Z,-2.36
2022-12-08T04:36:03.579Z,-2.37
2022-12-08T04:37:06.001Z,-2.51
2022-12-08T04:38:08.456Z,-2.54
2022-12-08T04:39:10.904Z,-2.58
2022-12-08T04:40:14.883Z,-2.50
2022-12-08T04:41:17.245Z,-2.50
2022-12-08T04:42:19.583Z,-2.48
2022-12-08T04:43:21.882Z,-2.47
2022-12-08T04:44:24.159Z,-2.44
2022-12-08T04:45:26.563Z,-2.40
2022-12-08T04:46:29.258Z,-2.42
2022-12-08T04:47:32.958Z,-2.46
2022-12-08T04:48:38.107Z,-2.44
2022-12-08T04:49:40.421Z,-2.44
2022-12-08T04:50:44.518Z,-2.49
2022-12-08T04:51:46.947Z,-2.51
2022-12-08T04:52:49.362Z,-2.48
2022-12-08T04:53:51.686Z,-2.54
2022-12-08T04:54:54.094Z,-2.79
2022-12-08T04:55:56.533Z,-2.78
2022-12-08T04:56:59.360Z,-2.78
2022-12-08T04:58:01.904Z,-2.79
2022-12-08T04:59:07.353Z,-2.80
2022-12-08T05:00:11.040Z,-2.76
2022-12-08T05:01:16.392Z,-2.65
2022-12-08T05:02:19.748Z,-2.61
2022-12-08T05:03:28.298Z,-2.58
2022-12-08T05:04:31.510Z,-2.57
2022-12-08T05:05:34.012Z,-2.55
2022-12-08T05:06:36.512Z,-2.51
2022-12-08T05:07:39.103Z,-2.49
2022-12-08T05:08:42.697Z,-2.56
2022-12-08T05:09:45.094Z,-2.50
2022-12-08T05:10:47.425Z,-2.54
2022-12-08T05:11:49.864Z,-2.53
2022-12-08T05:12:52.306Z,-2.57
2022-12-08T05:13:54.887Z,-2.68
2022-12-08T05:15:05.005Z,-2.80
2022-12-08T05:16:11.449Z,-2.73
2022-12-08T05:17:17.130Z,-2.63
2022-12-08T05:18:19.747Z,-2.46
2022-12-08T05:19:22.606Z,-2.41
2022-12-08T05:20:25.366Z,-2.36
2022-12-08T05:21:30.593Z,-2.35
2022-12-08T05:22:35.715Z,-2.32
2022-12-08T05:25:00.515Z,-2.20
2022-12-08T05:26:02.790Z,-2.08
2022-12-08T05:27:05.776Z,-2.09
2022-12-08T05:28:39.570Z,-2.12
2022-12-08T05:29:30.684Z,-2.06
2022-12-08T05:30:33.132Z,-1.96
2022-12-08T05:31:35.704Z,-1.92
2022-12-08T05:32:43.050Z,-2.04
2022-12-08T05:33:45.915Z,-2.01
2022-12-08T05:34:48.469Z,-1.94
2022-12-08T05:35:51.042Z,-1.95
2022-12-08T05:36:56.173Z,-1.94
2022-12-08T05:38:05.598Z,-1.99
2022-12-08T05:39:08.211Z,-1.91
2022-12-08T05:40:13.126Z,-1.88
2022-12-08T05:41:19.705Z,-1.86
2022-12-08T05:42:25.288Z,-1.88
2022-12-08T05:43:27.878Z,-1.82
2022-12-08T05:44:30.343Z,-1.88
2022-12-08T05:45:33.030Z,-1.87
2022-12-08T05:46:35.783Z,-1.92
2022-12-08T05:47:38.460Z,-1.98
2022-12-08T05:48:41.755Z,-1.93
2022-12-08T05:49:47.201Z,-1.86
2022-12-08T05:50:51.277Z,-1.82
2022-12-08T05:51:53.680Z,-1.86
2022-12-08T05:52:56.002Z,-1.94
2022-12-08T05:54:00.727Z,-1.87
2022-12-08T05:55:03.157Z,-1.86
2022-12-08T05:56:05.688Z,-1.90
2022-12-08T05:57:08.415Z,-1.82
2022-12-08T05:58:19.673Z,-1.78
2022-12-08T05:59:21.999Z,-1.80
2022-12-08T06:00:24.313Z,-1.77
2022-12-08T06:01:30.406Z,-1.76
2022-12-08T06:02:33.718Z,-1.87
2022-12-08T06:03:36.214Z,-1.86
2022-12-08T06:04:38.595Z,-1.89
2022-12-08T06:05:56.250Z,-1.88
2022-12-08T06:06:59.828Z,-1.80
2022-12-08T06:08:05.824Z,-1.73
2022-12-08T06:09:09.357Z,-1.75
2022-12-08T06:10:12.282Z,-1.74
2022-12-08T06:11:24.116Z,-1.81
2022-12-08T06:12:29.623Z,-1.81
2022-12-08T06:13:31.950Z,-1.80
2022-12-08T06:14:34.490Z,-1.84
2022-12-08T06:15:38.221Z,-1.73
2022-12-08T06:16:40.637Z,-1.77
2022-12-08T06:17:43.397Z,-1.73
2022-12-08T06:18:46.151Z,-1.70
2022-12-08T06:19:48.558Z,-1.74
2022-12-08T06:20:50.869Z,-1.70
2022-12-08T06:21:53.394Z,-1.69
2022-12-08T06:22:55.965Z,-1.68
2022-12-08T06:23:58.372Z,-1.63
2022-12-08T06:25:00.708Z,-1.64
2022-12-08T06:26:05.749Z,-1.61
2022-12-08T06:27:08.057Z,-1.60
2022-12-08T06:28:10.377Z,-1.59
2022-12-08T06:29:13.498Z,-1.56
2022-12-08T06:30:16.264Z,-1.57
2022-12-08T06:31:21.663Z,-1.53
2022-12-08T06:32:27.620Z,-1.48
2022-12-08T06:33:30.084Z,-1.43
2022-12-08T06:34:32.378Z,-1.39
2022-12-08T06:35:34.755Z,-1.45
2022-12-08T06:36:37.310Z,-1.42
2022-12-08T06:37:39.836Z,-1.48
2022-12-08T06:38:43.818Z,-1.47
2022-12-08T06:39:46.367Z,-1.40
2022-12-08T06:40:55.994Z,-1.40
2022-12-08T06:42:16.726Z,-1.35
2022-12-08T06:43:19.363Z,-1.26
2022-12-08T06:44:21.705Z,-1.21
2022-12-08T06:45:24.076Z,-1.20
2022-12-08T06:46:26.462Z,-1.18
2022-12-08T06:47:28.898Z,-1.23
2022-12-08T06:48:31.316Z,-1.20
2022-12-08T06:49:33.718Z,-1.14
2022-12-08T06:50:36.184Z,-1.14
2022-12-08T06:51:38.502Z,-1.06
2022-12-08T06:52:51.726Z,-1.07
2022-12-08T06:53:58.190Z,-1.17
2022-12-08T06:55:00.482Z,-1.10
2022-12-08T06:56:04.023Z,-1.09
2022-12-08T06:57:06.794Z,-0.98
2022-12-08T06:58:09.200Z,-0.96
2022-12-08T06:59:11.652Z,-0.97
2022-12-08T07:00:15.105Z,-0.94
2022-12-08T07:01:17.775Z,-0.85
2022-12-08T07:02:20.351Z,-0.71
2022-12-08T07:03:22.751Z,-0.61
2022-12-08T07:04:26.221Z,-0.55
2022-12-08T07:05:28.603Z,-0.48
2022-12-08T07:06:30.921Z,-0.42
2022-12-08T07:07:33.663Z,-0.42
2022-12-08T07:08:36.425Z,-0.46
2022-12-08T07:09:39.020Z,-0.55
2022-12-08T07:10:41.976Z,-0.61
2022-12-08T07:11:44.414Z,-0.53
2022-12-08T07:12:46.833Z,-0.49
2022-12-08T07:13:49.119Z,-0.58
2022-12-08T07:14:51.548Z,-0.70
2022-12-08T07:15:53.901Z,-0.77
2022-12-08T07:16:56.498Z,-0.76
2022-12-08T07:18:00.371Z,-0.65
2022-12-08T07:19:03.037Z,-0.55
2022-12-08T07:20:06.498Z,-0.52
2022-12-08T07:21:11.988Z,-0.53
2022-12-08T07:22:14.462Z,-0.62
2022-12-08T07:23:16.944Z,-0.57
2022-12-08T07:24:19.295Z,-0.62
2022-12-08T07:25:22.179Z,-0.69
2022-12-08T07:26:24.747Z,-0.55
2022-12-08T07:27:27.182Z,-0.47
2022-12-08T07:28:33.645Z,-0.46
2022-12-08T07:29:36.132Z,-0.48
2022-12-08T07:30:39.722Z,-0.45
2022-12-08T07:31:42.592Z,-0.51
2022-12-08T07:32:45.560Z,-0.46
2022-12-08T07:33:48.886Z,-0.42
2022-12-08T07:34:51.157Z,-0.44
2022-12-08T07:35:58.782Z,-0.47
2022-12-08T07:37:02.105Z,-0.49
2022-12-08T07:38:04.722Z,-0.40
2022-12-08T07:39:07.152Z,-0.35
2022-12-08T07:40:10.116Z,-0.39
2022-12-08T07:41:14.745Z,-0.40
2022-12-08T07:42:17.548Z,-0.18
2022-12-08T07:43:23.066Z,0.33
2022-12-08T07:44:25.635Z,0.81
2022-12-08T07:45:31.479Z,1.16
2022-12-08T07:46:34.663Z,1.31
2022-12-08T07:47:37.537Z,1.33
2022-12-08T07:48:39.986Z,1.06
2022-12-08T07:49:42.606Z,0.92
2022-12-08T07:50:45.043Z,0.98
2022-12-08T07:51:47.453Z,0.89
2022-12-08T07:52:49.735Z,0.88
2022-12-08T07:53:54.446Z,0.82
2022-12-08T07:54:57.345Z,0.82
2022-12-08T07:56:00.053Z,0.61
2022-12-08T07:57:03.875Z,0.53
2022-12-08T07:58:06.731Z,0.63
2022-12-08T07:59:09.173Z,0.66
2022-12-08T08:00:12.142Z,0.58
2022-12-08T08:01:24.259Z,0.60
2022-12-08T08:02:26.932Z,0.55
2022-12-08T08:03:29.399Z,0.46
2022-12-08T08:04:34.939Z,0.54
2022-12-08T08:05:37.738Z,0.60
2022-12-08T08:06:40.262Z,0.68
2022-12-08T08:07:43.846Z,0.80
2022-12-08T08:08:46.401Z,0.88
2022-12-08T08:09:51.535Z,0.95
2022-12-08T08:10:53.759Z,1.02
2022-12-08T08:12:28.909Z,1.12
2022-12-08T08:13:18.676Z,1.56
2022-12-08T08:14:21.102Z,1.52
2022-12-08T08:15:23.439Z,1.53
2022-12-08T08:16:25.936Z,1.36
2022-12-08T08:17:29.420Z,1.38
2022-12-08T08:18:33.066Z,1.28
2022-12-08T08:19:35.434Z,1.32
2022-12-08T08:20:37.766Z,1.42
2022-12-08T08:21:47.680Z,1.38
2022-12-08T08:22:50.935Z,1.48
2022-12-08T08:23:53.338Z,1.39
2022-12-08T08:24:55.594Z,1.28
2022-12-08T08:26:03.074Z,1.16
2022-12-08T08:27:05.674Z,1.22
2022-12-08T08:28:08.745Z,1.21
2022-12-08T08:29:11.192Z,1.22
2022-12-08T08:30:19.942Z,1.34
2022-12-08T08:31:27.263Z,1.23
2022-12-08T08:32:34.016Z,1.17
2022-12-08T08:33:36.268Z,1.20
2022-12-08T08:34:38.917Z,1.26
2022-12-08T08:35:42.549Z,1.28
2022-12-08T08:36:46.106Z,1.30
2022-12-08T08:37:49.769Z,1.31
2022-12-08T08:38:52.679Z,1.15
2022-12-08T08:39:55.002Z,1.16
2022-12-08T08:40:57.832Z,1.14
2022-12-08T08:42:00.290Z,1.21
2022-12-08T08:43:04.740Z,1.16
2022-12-08T08:44:07.854Z,1.30
2022-12-08T08:45:10.828Z,1.34
2022-12-08T08:46:13.117Z,1.24
2022-12-08T08:47:15.847Z,1.21
2022-12-08T08:48:18.171Z,1.27
2022-12-08T08:49:21.503Z,1.31
2022-12-08T08:50:23.925Z,1.33
2022-12-08T08:51:27.813Z,1.29
2022-12-08T08:52:30.329Z,1.36
2022-12-08T08:53:32.663Z,1.38
2022-12-08T08:54:35.791Z,1.39
2022-12-08T08:55:39.749Z,1.36
2022-12-08T08:56:42.258Z,1.37
2022-12-08T08:57:44.569Z,1.37
2022-12-08T08:58:49.031Z,1.38
2022-12-08T08:59:51.936Z,1.40
2022-12-08T09:00:54.285Z,1.35
2022-12-08T09:01:59.124Z,1.38
2022-12-08T09:03:01.799Z,1.27
2022-12-08T09:04:04.263Z,1.25
2022-12-08T09:05:07.893Z,1.33
2022-12-08T09:06:10.455Z,1.42
2022-12-08T09:07:13.656Z,1.47
2022-12-08T09:08:16.381Z,1.48
2022-12-08T09:09:18.850Z,1.56
2022-12-08T09:10:21.387Z,1.57
2022-12-08T09:11:24.255Z,1.56
2022-12-08T09:12:26.734Z,1.60
2022-12-08T09:13:29.098Z,1.64
2022-12-08T09:14:31.571Z,1.61
2022-12-08T09:15:34.703Z,1.59
2022-12-08T09:16:41.932Z,1.51
2022-12-08T09:17:44.837Z,1.67
2022-12-08T09:18:49.794Z,1.64
2022-12-08T09:19:52.160Z,1.66
2022-12-08T09:20:54.830Z,1.70
2022-12-08T09:21:57.731Z,1.71
2022-12-08T09:23:03.144Z,1.69
2022-12-08T09:24:07.054Z,1.77
2022-12-08T09:25:09.850Z,1.65
2022-12-08T09:26:13.043Z,1.73
2022-12-08T09:27:15.328Z,1.72
2022-12-08T09:28:17.856Z,1.78
2022-12-08T09:29:20.420Z,1.79
2022-12-08T09:30:24.128Z,1.87
2022-12-08T09:31:27.042Z,1.81
2022-12-08T09:32:29.391Z,1.86
2022-12-08T09:33:34.779Z,1.88
2022-12-08T09:34:37.472Z,1.92
2022-12-08T09:35:39.883Z,1.97
2022-12-08T09:36:42.246Z,2.04
2022-12-08T09:37:44.872Z,2.05
2022-12-08T09:38:47.158Z,2.07
2022-12-08T09:39:49.571Z,2.05
2022-12-08T09:40:53.969Z,2.08
2022-12-08T09:42:01.865Z,2.13
2022-12-08T09:43:18.808Z,2.20
2022-12-08T09:44:39.582Z,2.28
2022-12-08T09:45:42.154Z,2.28
2022-12-08T09:46:47.291Z,2.22
2022-12-08T09:48:22.387Z,2.17
2022-12-08T09:49:46.034Z,2.38
2022-12-08T09:50:58.194Z,2.33
2022-12-08T09:52:01.262Z,2.46
2022-12-08T09:53:12.590Z,2.41
2022-12-08T09:54:21.495Z,2.39
2022-12-08T09:55:43.433Z,2.49
2022-12-08T09:56:46.170Z,2.48
2022-12-08T09:57:56.955Z,2.44
2022-12-08T09:59:27.412Z,2.45
2022-12-08T10:00:30.599Z,2.62
2022-12-08T10:01:38.512Z,2.57
2022-12-08T10:02:40.990Z,2.42
2022-12-08T10:03:43.598Z,2.46
2022-12-08T10:04:46.044Z,2.51
2022-12-08T10:06:11.584Z,2.64
2022-12-08T10:07:45.418Z,2.78
2022-12-08T10:09:22.708Z,2.78
2022-12-08T10:10:47.346Z,2.76
2022-12-08T10:11:57.859Z,2.72
2022-12-08T10:13:12.004Z,2.61
2022-12-08T10:14:47.618Z,2.57
2022-12-08T10:16:23.029Z,2.65
2022-12-08T10:17:31.041Z,2.77
2022-12-08T10:18:34.855Z,2.73
2022-12-08T10:19:40.771Z,2.60
2022-12-08T10:20:46.414Z,2.72
2022-12-08T10:21:50.524Z,2.68
2022-12-08T10:23:18.701Z,2.68
2022-12-08T10:24:28.240Z,2.84
2022-12-08T10:25:39.575Z,2.82
2022-12-08T10:26:42.071Z,2.71
2022-12-08T10:27:47.125Z,2.88
2022-12-08T10:28:51.712Z,2.97
2022-12-08T10:29:54.112Z,2.97
2022-12-08T10:30:57.452Z,2.94
2022-12-08T10:32:00.625Z,2.80
2022-12-08T10:33:03.867Z,2.83
2022-12-08T10:34:17.644Z,2.88
2022-12-08T10:35:22.511Z,2.95
2022-12-08T10:36:56.281Z,2.82
2022-12-08T10:38:00.665Z,2.94
2022-12-08T10:39:02.960Z,2.90
2022-12-08T10:40:18.632Z,2.95
2022-12-08T10:41:21.219Z,3.02
2022-12-08T10:42:23.592Z,3.05
2022-12-08T10:43:27.398Z,3.13
2022-12-08T10:44:29.959Z,3.58
2022-12-08T10:45:44.126Z,3.90
2022-12-08T10:46:46.603Z,3.97
2022-12-08T10:48:10.061Z,4.37
2022-12-08T10:49:13.505Z,4.52
2022-12-08T10:50:15.828Z,4.64
2022-12-08T10:51:34.873Z,4.36
2022-12-08T10:52:41.169Z,4.40
2022-12-08T10:53:46.882Z,4.05
2022-12-08T10:54:54.675Z,4.01
2022-12-08T10:56:03.251Z,4.02
2022-12-08T10:57:05.797Z,4.21
2022-12-08T10:58:28.136Z,4.00
2022-12-08T10:59:33.828Z,3.93
2022-12-08T11:00:39.571Z,3.71
2022-12-08T11:01:45.644Z,3.97
2022-12-08T11:02:59.680Z,4.29
2022-12-08T11:04:03.910Z,4.47
2022-12-08T11:05:06.771Z,4.46
2022-12-08T11:06:15.043Z,4.57
2022-12-08T11:07:23.335Z,4.77
2022-12-08T11:08:28.391Z,4.46
2022-12-08T11:09:51.083Z,4.45
2022-12-08T11:10:53.626Z,4.19
2022-12-08T11:12:14.224Z,4.26
2022-12-08T11:13:26.527Z,4.14
2022-12-08T11:14:30.481Z,4.26
2022-12-08T11:15:36.766Z,4.15
2022-12-08T11:16:42.443Z,4.02
2022-12-08T11:17:52.207Z,4.04
2022-12-08T11:18:58.934Z,3.79
2022-12-08T11:20:11.758Z,3.91
2022-12-08T11:21:19.849Z,3.87
2022-12-08T11:22:24.685Z,3.90
2022-12-08T11:23:29.120Z,3.96
2022-12-08T11:24:37.685Z,3.89
2022-12-08T11:25:40.625Z,3.77
2022-12-08T11:26:52.207Z,3.95
2022-12-08T11:28:00.031Z,3.99
2022-12-08T11:29:02.697Z,3.91
2022-12-08T11:30:15.819Z,4.05
2022-12-08T11:31:44.235Z,4.07
2022-12-08T11:32:55.776Z,4.59
2022-12-08T11:33:58.821Z,4.52
2022-12-08T11:35:06.802Z,4.21
2022-12-08T11:36:14.756Z,4.52
2022-12-08T11:37:27.485Z,4.35
2022-12-08T11:38:34.195Z,4.34
2022-12-08T11:39:43.811Z,4.41
2022-12-08T11:40:46.356Z,4.33
2022-12-08T11:41:49.578Z,4.24
2022-12-08T11:43:06.518Z,4.36
2022-12-08T11:44:28.777Z,4.25
2022-12-08T11:45:35.441Z,4.33
2022-12-08T11:47:01.579Z,4.32
2022-12-08T11:48:07.605Z,4.29
2022-12-08T11:49:14.282Z,3.92
2022-12-08T11:50:39.384Z,4.12
2022-12-08T11:51:51.422Z,4.18
2022-12-08T11:52:53.895Z,4.18
2022-12-08T11:54:21.243Z,4.05
2022-12-08T11:55:40.634Z,3.88
2022-12-08T11:56:47.090Z,4.00
2022-12-08T11:57:51.931Z,3.95
2022-12-08T11:58:58.874Z,3.86
2022-12-08T12:00:02.308Z,3.99
2022-12-08T12:01:24.171Z,4.11
2022-12-08T12:02:32.338Z,3.96
2022-12-08T12:03:40.841Z,3.99
2022-12-08T12:04:43.474Z,4.12
2022-12-08T12:06:18.326Z,3.99
2022-12-08T12:07:46.973Z,3.89
2022-12-08T12:09:01.411Z,3.86
2022-12-08T12:10:28.503Z,3.80
2022-12-08T12:12:04.124Z,3.75
2022-12-08T12:13:23.416Z,3.65
2022-12-08T12:14:41.785Z,3.58
2022-12-08T12:16:21.682Z,3.57
2022-12-08T12:17:33.063Z,3.56
2022-12-08T12:18:45.590Z,3.28
2022-12-08T12:19:49.411Z,3.30
2022-12-08T12:21:08.184Z,3.34
2022-12-08T12:22:17.868Z,3.37
2022-12-08T12:23:24.942Z,3.23
2022-12-08T12:24:35.947Z,3.14
2022-12-08T12:25:46.000Z,3.31
2022-12-08T12:27:17.760Z,3.32
2022-12-08T12:28:20.309Z,3.30
2022-12-08T12:29:26.692Z,3.27
2022-12-08T12:30:48.971Z,3.33
2022-12-08T12:31:59.515Z,3.26
2022-12-08T12:33:02.824Z,3.35
2022-12-08T12:34:14.887Z,3.25
2022-12-08T12:35:40.917Z,3.29
2022-12-08T12:36:57.903Z,3.18
2022-12-08T12:38:33.896Z,3.09
2022-12-08T12:40:01.614Z,3.04
2022-12-08T12:41:07.053Z,3.07
2022-12-08T12:42:37.783Z,3.00
2022-12-08T12:43:40.392Z,3.01
2022-12-08T12:44:43.621Z,3.02
2022-12-08T12:45:46.763Z,3.03
2022-12-08T12:46:49.571Z,2.96
2022-12-08T12:48:14.644Z,2.96
2022-12-08T12:49:43.971Z,2.97
2022-12-08T12:50:48.645Z,3.03
2022-12-08T12:51:55.671Z,3.08
2022-12-08T12:53:01.179Z,3.09
2022-12-08T12:54:28.692Z,3.03
2022-12-08T12:55:46.759Z,3.03
2022-12-08T12:56:51.168Z,3.10
2022-12-08T12:57:56.757Z,2.94
2022-12-08T12:59:35.275Z,2.89
2022-12-08T13:00:37.871Z,2.99
2022-12-08T13:01:54.802Z,2.87
2022-12-08T13:02:59.119Z,2.91
2022-12-08T13:04:09.183Z,2.91
2022-12-08T13:05:26.898Z,2.88
2022-12-08T13:06:42.515Z,2.82
2022-12-08T13:07:55.695Z,2.78
2022-12-08T13:08:58.852Z,2.85
2022-12-08T13:10:18.241Z,2.90
2022-12-08T13:11:21.808Z,2.81
2022-12-08T13:12:25.345Z,2.80
2022-12-08T13:13:29.107Z,2.71
2022-12-08T13:14:35.689Z,2.76
2022-12-08T13:15:48.468Z,2.81
2022-12-08T13:16:54.949Z,2.78
2022-12-08T13:17:58.229Z,2.69
2022-12-08T13:19:04.066Z,2.88
2022-12-08T13:20:17.553Z,2.88
2022-12-08T13:21:23.167Z,2.84
2022-12-08T13:22:53.763Z,2.89
2022-12-08T13:24:14.586Z,2.92
2022-12-08T13:25:44.883Z,2.88
2022-12-08T13:26:48.257Z,2.88
2022-12-08T13:27:55.157Z,2.82
2022-12-08T13:29:01.585Z,2.90
2022-12-08T13:30:42.796Z,2.89
2022-12-08T13:32:12.140Z,2.99
2022-12-08T13:33:33.914Z,2.91
2022-12-08T13:34:45.709Z,2.85
2022-12-08T13:36:03.875Z,2.96
2022-12-08T13:37:12.594Z,2.85
2022-12-08T13:38:21.432Z,2.80
2022-12-08T13:39:41.354Z,2.79
2022-12-08T13:40:44.909Z,2.85
2022-12-08T13:42:08.053Z,2.88
2022-12-08T13:43:16.803Z,2.92
2022-12-08T13:45:18.491Z,2.89
2022-12-08T13:46:52.873Z,2.87
2022-12-08T13:47:34.693Z,2.74
2022-12-08T13:55:49.804Z,2.29
2022-12-08T13:57:36.989Z,2.28
2022-12-08T13:58:40.497Z,2.15
2022-12-08T13:59:46.336Z,2.20
2022-12-08T14:01:17.683Z,2.07
2022-12-08T14:02:40.834Z,2.05
2022-12-08T14:04:22.028Z,2.03
2022-12-08T14:05:19.494Z,2.04
2022-12-08T14:06:29.721Z,2.07
2022-12-08T14:07:33.879Z,2.06
2022-12-08T14:08:59.298Z,2.00
2022-12-08T14:10:00.246Z,2.03
2022-12-08T14:11:06.299Z,2.06
2022-12-08T14:12:28.292Z,2.04
2022-12-08T14:13:33.049Z,2.02
2022-12-08T14:15:02.435Z,2.06
2022-12-08T14:16:06.422Z,1.97
2022-12-08T14:17:17.637Z,1.93
2022-12-08T14:18:33.637Z,2.02
2022-12-08T14:19:36.146Z,1.96
2022-12-08T14:21:12.130Z,2.00
2022-12-08T14:22:13.111Z,2.00
2022-12-08T14:23:17.729Z,1.97
2022-12-08T14:24:22.261Z,1.86
2022-12-08T14:25:28.252Z,1.85
2022-12-08T14:26:35.590Z,1.86
2022-12-08T14:27:38.879Z,1.91
2022-12-08T14:28:44.749Z,1.92
2022-12-08T14:30:00.263Z,1.99
2022-12-08T14:31:03.887Z,1.98
2022-12-08T14:32:23.587Z,1.95
2022-12-08T14:33:27.538Z,1.92
2022-12-08T14:34:29.816Z,1.92
2022-12-08T14:35:37.899Z,1.88
2022-12-08T14:36:40.439Z,1.97
2022-12-08T14:37:46.569Z,1.82
2022-12-08T14:38:51.438Z,1.88
2022-12-08T14:39:59.625Z,1.91
2022-12-08T14:41:08.036Z,1.92
2022-12-08T14:42:23.329Z,1.98
2022-12-08T14:43:28.527Z,1.97
2022-12-08T14:44:33.220Z,1.97
2022-12-08T14:45:47.036Z,1.97
2022-12-08T14:47:09.318Z,1.96
2022-12-08T14:48:43.049Z,1.91
2022-12-08T14:49:48.099Z,1.94
2022-12-08T14:50:56.612Z,1.94
2022-12-08T14:52:01.398Z,1.91